Time;durP1;ratioP1;P1;durP2;ratioP2;P2;SDS_P1;SDS_P2;PMS_P1;PMS_P2;Temp;Humidity;BMP_temperature;BMP_pressure;BME280_temperature;BME280_humidity;BME280_pressure;Samples;Min_cycle;Max_cycle;Signal;HPM_P1;HPM_P2
2022/05/21 00:00:21;;;;;;;0.40;0.30;;;18.50;99.90;;;;;;5050953;28;20388;-70
2022/05/21 00:02:47;;;;;;;0.40;0.30;;;18.50;99.90;;;;;;5049943;28;20439;-69
2022/05/21 00:05:15;;;;;;;0.40;0.30;;;18.60;99.90;;;;;;5048657;28;20792;-69
2022/05/21 00:07:42;;;;;;;7.10;3.50;;;18.80;99.90;;;;;;5041377;28;20477;-68
2022/05/21 00:10:09;;;;;;;0.73;0.73;;;18.90;99.90;;;;;;5031428;28;20577;-68
2022/05/21 00:12:35;;;;;;;0.40;0.30;;;18.80;99.90;;;;;;5031916;28;20389;-68
2022/05/21 00:15:00;;;;;;;0.40;0.20;;;18.60;99.90;;;;;;5031290;28;20475;-68
2022/05/21 00:17:26;;;;;;;0.40;0.30;;;18.70;99.90;;;;;;5031878;28;20463;-68
2022/05/21 00:19:52;;;;;;;0.40;0.30;;;18.80;99.90;;;;;;5029292;28;20387;-68
2022/05/21 00:22:18;;;;;;;0.40;0.30;;;18.80;99.90;;;;;;5030878;28;20382;-70
2022/05/21 00:24:43;;;;;;;0.40;0.40;;;18.80;99.90;;;;;;5042370;28;20467;-69
2022/05/21 00:27:09;;;;;;;0.40;0.20;;;18.90;99.90;;;;;;5051614;28;20409;-69
2022/05/21 00:29:35;;;;;;;0.40;0.20;;;18.70;99.90;;;;;;5051903;28;20436;-69
2022/05/21 00:32:02;;;;;;;0.40;0.30;;;18.70;99.90;;;;;;5049836;28;20393;-69
2022/05/21 00:34:28;;;;;;;0.40;0.30;;;18.50;99.90;;;;;;5050619;28;20412;-69
2022/05/21 00:36:54;;;;;;;0.40;0.30;;;18.40;99.90;;;;;;5050423;28;20416;-70
2022/05/21 00:39:20;;;;;;;0.40;0.20;;;18.20;99.90;;;;;;5051636;28;20449;-69
2022/05/21 00:41:46;;;;;;;0.40;0.30;;;18.20;99.90;;;;;;5050071;28;20393;-69
2022/05/21 00:44:12;;;;;;;0.40;0.30;;;18.40;99.90;;;;;;5051250;28;20397;-70
2022/05/21 00:46:43;;;;;;;0.40;0.20;;;18.30;99.90;;;;;;5051058;28;20414;-69
2022/05/21 00:49:24;;;;;;;0.40;0.30;;;18.40;99.90;;;;;;5033565;28;20809;-69
2022/05/21 00:52:10;;;;;;;0.40;0.30;;;17.90;99.90;;;;;;5050239;28;20390;-70
2022/05/21 00:54:46;;;;;;;0.50;0.50;;;17.80;99.90;;;;;;5051027;28;20385;-69
2022/05/21 00:57:15;;;;;;;0.40;0.20;;;17.80;99.90;;;;;;5051555;28;20381;-69
2022/05/21 00:59:48;;;;;;;0.40;0.35;;;17.60;99.90;;;;;;5050660;28;20385;-69
2022/05/21 01:02:28;;;;;;;0.40;0.20;;;17.30;99.90;;;;;;5051246;28;20382;-69
2022/05/21 01:04:56;;;;;;;0.40;0.20;;;17.60;99.90;;;;;;5050460;28;20448;-70
2022/05/21 01:07:25;;;;;;;0.50;0.40;;;17.60;99.90;;;;;;5041942;28;20871;-70
2022/05/21 01:09:56;;;;;;;0.40;0.20;;;17.60;99.90;;;;;;5037847;28;20416;-69
2022/05/21 01:12:26;;;;;;;0.40;0.20;;;17.30;99.90;;;;;;5050557;28;20496;-69
2022/05/21 01:14:57;;;;;;;0.40;0.30;;;17.30;99.90;;;;;;5033289;28;20383;-69
2022/05/21 01:17:23;;;;;;;0.40;0.20;;;17.30;99.90;;;;;;5030961;28;20429;-69
2022/05/21 01:19:58;;;;;;;0.40;0.20;;;17.10;99.90;;;;;;5030020;28;20771;-69
2022/05/21 01:22:29;;;;;;;0.50;0.50;;;17.10;99.90;;;;;;5030266;28;20403;-69
2022/05/21 01:24:55;;;;;;;0.40;0.20;;;17.00;99.90;;;;;;5042673;28;20381;-69
2022/05/21 01:27:22;;;;;;;0.40;0.20;;;16.90;99.90;;;;;;5032117;28;20905;-69
2022/05/21 01:29:51;;;;;;;0.40;0.20;;;16.90;99.90;;;;;;5048625;28;20457;-69
2022/05/21 01:32:17;;;;;;;0.40;0.30;;;16.90;99.90;;;;;;5050286;28;20381;-70
2022/05/21 01:34:43;;;;;;;0.40;0.20;;;16.80;99.90;;;;;;5050031;28;20389;-69
2022/05/21 01:37:09;;;;;;;1.00;0.90;;;16.70;99.90;;;;;;5050162;28;20775;-68
2022/05/21 01:39:34;;;;;;;0.40;0.20;;;16.60;99.90;;;;;;5049326;28;20392;-69
2022/05/21 01:42:00;;;;;;;0.40;0.20;;;16.60;99.90;;;;;;5049787;28;20403;-68
2022/05/21 01:44:38;;;;;;;0.40;0.20;;;16.60;99.90;;;;;;5050253;28;20472;-69
2022/05/21 01:47:13;;;;;;;0.40;0.30;;;16.60;99.90;;;;;;5049386;28;20973;-69
2022/05/21 01:49:40;;;;;;;0.40;0.30;;;16.60;99.90;;;;;;5046752;28;20776;-68
2022/05/21 01:52:07;;;;;;;0.40;0.30;;;16.50;99.90;;;;;;5046585;28;20407;-69
2022/05/21 01:54:34;;;;;;;0.40;0.20;;;16.50;99.90;;;;;;5030149;28;20387;-69
2022/05/21 01:57:00;;;;;;;0.40;0.20;;;16.60;99.90;;;;;;5036962;28;20384;-69
2022/05/21 01:59:26;;;;;;;0.40;0.20;;;16.50;99.90;;;;;;5028829;28;20375;-69
2022/05/21 02:01:53;;;;;;;0.40;0.20;;;16.50;99.90;;;;;;5028584;28;20391;-69
2022/05/21 02:04:19;;;;;;;0.55;0.47;;;16.60;99.90;;;;;;5028940;28;20474;-67
2022/05/21 02:06:45;;;;;;;0.50;0.40;;;16.50;99.90;;;;;;5028647;28;20806;-68
2022/05/21 02:09:11;;;;;;;0.40;0.20;;;16.60;99.90;;;;;;5030399;28;20394;-69
2022/05/21 02:11:38;;;;;;;0.40;0.20;;;16.60;99.90;;;;;;5029319;28;20410;-69
2022/05/21 02:14:05;;;;;;;0.40;0.20;;;16.40;99.90;;;;;;5029156;28;20386;-69
2022/05/21 02:16:33;;;;;;;0.40;0.30;;;16.10;99.90;;;;;;5011914;28;20410;-69
2022/05/21 02:19:01;;;;;;;0.40;0.20;;;16.10;99.90;;;;;;5029321;28;20728;-69
2022/05/21 02:21:31;;;;;;;0.40;0.20;;;15.90;99.90;;;;;;5012737;28;20395;-69
2022/05/21 02:23:56;;;;;;;0.40;0.40;;;15.90;99.90;;;;;;5033636;28;20397;-69
2022/05/21 02:26:23;;;;;;;0.40;0.30;;;16.00;99.90;;;;;;5049694;28;20405;-68
2022/05/21 02:28:49;;;;;;;0.90;0.80;;;16.00;99.90;;;;;;5048842;28;20466;-69
2022/05/21 02:31:14;;;;;;;0.60;0.60;;;15.90;99.90;;;;;;5049800;28;20378;-69
2022/05/21 02:33:40;;;;;;;0.40;0.20;;;15.90;99.90;;;;;;5049941;28;20403;-69
2022/05/21 02:36:06;;;;;;;0.40;0.20;;;15.70;99.90;;;;;;5048805;28;20389;-68
2022/05/21 02:41:17;;;;;;;0.40;0.20;;;15.90;99.90;;;;;;5049932;28;20748;-68
2022/05/21 02:43:43;;;;;;;0.40;0.22;;;15.90;99.90;;;;;;5049698;28;20382;-68
2022/05/21 02:46:10;;;;;;;0.40;0.20;;;15.70;99.90;;;;;;5049201;28;20412;-69
2022/05/21 02:48:36;;;;;;;0.40;0.30;;;15.50;99.90;;;;;;5049494;28;20488;-69
2022/05/21 02:51:02;;;;;;;0.40;0.20;;;15.60;99.90;;;;;;5048561;28;20604;-68
2022/05/21 02:53:28;;;;;;;0.40;0.30;;;15.60;99.90;;;;;;5049716;28;21000;-69
2022/05/21 02:55:55;;;;;;;0.40;0.30;;;15.50;99.90;;;;;;5048197;28;20398;-69
2022/05/21 02:58:22;;;;;;;0.50;0.50;;;15.40;99.90;;;;;;5030473;28;20393;-68
2022/05/21 03:00:48;;;;;;;0.40;0.40;;;15.40;99.90;;;;;;5048613;28;20417;-69
2022/05/21 03:03:14;;;;;;;0.40;0.20;;;15.20;99.90;;;;;;5048504;28;20417;-69
2022/05/21 03:05:41;;;;;;;0.40;0.30;;;15.30;99.90;;;;;;5048946;28;20405;-69
2022/05/21 03:10:56;;;;;;;0.40;0.30;;;15.40;99.90;;;;;;5048992;28;20466;-71
2022/05/21 03:13:22;;;;;;;0.40;0.30;;;15.30;99.90;;;;;;5049674;28;20442;-71
2022/05/21 03:15:48;;;;;;;0.40;0.20;;;15.30;99.90;;;;;;5049078;28;20400;-70
2022/05/21 03:18:15;;;;;;;0.50;0.50;;;15.20;99.90;;;;;;5050776;28;20389;-71
2022/05/21 03:20:42;;;;;;;0.40;0.30;;;15.20;99.90;;;;;;5034977;28;20504;-71
2022/05/21 03:23:09;;;;;;;0.40;0.25;;;15.10;99.90;;;;;;5048579;28;20638;-71
2022/05/21 03:25:35;;;;;;;0.40;0.20;;;15.20;99.90;;;;;;5038030;28;20385;-71
2022/05/21 03:28:01;;;;;;;0.40;0.30;;;15.10;99.90;;;;;;5036953;28;20379;-71
2022/05/21 03:30:29;;;;;;;0.40;0.30;;;15.00;99.90;;;;;;5032893;28;20490;-71
2022/05/21 03:32:55;;;;;;;0.40;0.30;;;15.10;99.90;;;;;;5032411;28;20393;-71
2022/05/21 03:35:22;;;;;;;0.40;0.20;;;15.00;99.90;;;;;;5033679;28;20447;-71
2022/05/21 03:37:50;;;;;;;0.40;0.30;;;15.00;99.90;;;;;;5036261;28;20381;-71
2022/05/21 03:40:19;;;;;;;0.40;0.20;;;14.90;99.90;;;;;;5051769;28;20897;-71
2022/05/21 03:42:45;;;;;;;0.40;0.20;;;14.90;99.90;;;;;;5051904;28;20428;-71
2022/05/21 03:45:12;;;;;;;0.40;0.20;;;14.80;99.90;;;;;;5051851;28;20389;-71
2022/05/21 03:47:41;;;;;;;0.40;0.20;;;14.90;99.90;;;;;;5052863;28;20452;-71
2022/05/21 03:50:08;;;;;;;0.40;0.20;;;14.90;99.90;;;;;;5051847;28;20442;-71
2022/05/21 03:52:33;;;;;;;0.40;0.20;;;14.70;99.90;;;;;;5051593;28;20389;-71
2022/05/21 03:54:59;;;;;;;0.40;0.20;;;14.70;99.90;;;;;;5051825;28;20382;-71
2022/05/21 03:57:25;;;;;;;0.40;0.20;;;14.60;99.90;;;;;;5051294;28;20392;-70
2022/05/21 03:59:50;;;;;;;0.40;0.30;;;14.60;99.90;;;;;;5050822;28;20673;-70
2022/05/21 04:02:17;;;;;;;0.40;0.20;;;14.50;99.90;;;;;;5050654;28;20386;-70
2022/05/21 04:04:43;;;;;;;0.40;0.20;;;14.50;99.90;;;;;;5051108;28;20385;-70
2022/05/21 04:07:09;;;;;;;0.40;0.20;;;14.50;99.90;;;;;;5051172;28;20417;-71
2022/05/21 04:09:35;;;;;;;0.40;0.20;;;14.50;99.90;;;;;;5051995;28;20393;-71
2022/05/21 04:12:03;;;;;;;0.40;0.30;;;14.50;99.90;;;;;;5050982;28;20491;-71
2022/05/21 04:14:29;;;;;;;0.80;0.80;;;14.50;99.90;;;;;;5052128;28;20382;-71
2022/05/21 04:17:01;;;;;;;0.40;0.30;;;14.60;99.90;;;;;;5050636;28;20808;-70
2022/05/21 04:19:28;;;;;;;0.40;0.20;;;14.50;99.90;;;;;;5052015;28;20410;-71
2022/05/21 04:21:55;;;;;;;0.40;0.20;;;14.50;99.90;;;;;;5051402;28;20385;-70
2022/05/21 04:24:20;;;;;;;0.40;0.40;;;14.50;99.90;;;;;;5043289;28;20856;-71
2022/05/21 04:26:46;;;;;;;0.40;0.23;;;14.40;99.90;;;;;;5031976;28;20413;-72
2022/05/21 04:29:14;;;;;;;0.40;0.20;;;14.40;99.90;;;;;;5031299;28;20459;-71
2022/05/21 04:31:40;;;;;;;0.40;0.20;;;14.50;99.90;;;;;;5031727;28;20391;-71
2022/05/21 04:34:05;;;;;;;0.40;0.30;;;14.60;99.90;;;;;;5031192;28;20390;-71
2022/05/21 04:36:32;;;;;;;0.40;0.20;;;14.50;99.90;;;;;;5032022;28;20391;-71
2022/05/21 04:38:58;;;;;;;0.40;0.30;;;14.50;99.90;;;;;;5030624;28;20381;-71
2022/05/21 04:41:25;;;;;;;0.40;0.30;;;14.50;99.90;;;;;;5031672;28;20402;-72
2022/05/21 04:43:51;;;;;;;0.40;0.28;;;14.40;99.90;;;;;;5013906;28;20962;-72
2022/05/21 04:46:18;;;;;;;0.40;0.20;;;14.50;99.90;;;;;;5031488;28;20513;-71
2022/05/21 04:48:45;;;;;;;0.40;0.25;;;14.50;99.90;;;;;;5013861;28;20395;-72
2022/05/21 04:51:11;;;;;;;0.40;0.30;;;14.50;99.90;;;;;;5030592;28;20433;-71
2022/05/21 04:53:37;;;;;;;0.80;0.80;;;14.50;99.90;;;;;;5031427;28;20466;-72
2022/05/21 04:56:05;;;;;;;0.40;0.40;;;14.50;99.90;;;;;;5029955;28;20387;-71
2022/05/21 04:58:30;;;;;;;0.40;0.30;;;14.50;99.90;;;;;;5030186;28;20474;-71
2022/05/21 05:00:56;;;;;;;0.40;0.20;;;14.60;99.90;;;;;;5029752;28;20931;-71
2022/05/21 05:03:23;;;;;;;0.40;0.20;;;14.70;99.90;;;;;;5029968;28;20398;-72
2022/05/21 05:05:49;;;;;;;0.50;0.50;;;14.60;99.90;;;;;;5030506;28;20412;-72
2022/05/21 05:08:17;;;;;;;0.40;0.20;;;14.60;99.90;;;;;;5030580;28;20398;-72
2022/05/21 05:10:43;;;;;;;0.40;0.20;;;14.70;99.90;;;;;;5030800;28;20500;-72
2022/05/21 05:13:09;;;;;;;0.40;0.20;;;14.70;99.90;;;;;;5030596;28;20399;-74
2022/05/21 05:15:36;;;;;;;0.40;0.30;;;14.70;99.90;;;;;;5030995;28;20391;-73
2022/05/21 05:18:07;;;;;;;0.40;0.28;;;14.80;99.90;;;;;;5030516;28;20878;-72
2022/05/21 05:20:34;;;;;;;0.40;0.30;;;14.80;99.90;;;;;;5030668;28;20384;-73
2022/05/21 05:23:00;;;;;;;0.40;0.30;;;14.90;99.90;;;;;;5030341;28;20383;-72
2022/05/21 05:25:25;;;;;;;0.40;0.30;;;14.90;99.90;;;;;;5047608;28;20384;-73
2022/05/21 05:27:51;;;;;;;0.40;0.20;;;15.00;99.90;;;;;;5050663;28;20487;-74
2022/05/21 05:30:19;;;;;;;0.40;0.20;;;15.00;99.90;;;;;;5050056;28;20374;-74
2022/05/21 05:32:45;;;;;;;0.40;0.20;;;15.10;99.90;;;;;;5050766;28;20389;-74
2022/05/21 05:35:12;;;;;;;0.60;0.60;;;15.10;99.90;;;;;;5050012;28;20381;-73
2022/05/21 05:37:39;;;;;;;0.40;0.20;;;15.20;99.90;;;;;;5050721;28;20417;-73
2022/05/21 05:40:08;;;;;;;0.40;0.20;;;15.20;99.90;;;;;;5049908;28;20444;-73
2022/05/21 05:42:35;;;;;;;0.40;0.30;;;15.10;99.90;;;;;;5049817;28;20389;-73
2022/05/21 05:45:01;;;;;;;0.40;0.40;;;15.20;99.90;;;;;;5032031;28;20480;-72
2022/05/21 05:47:27;;;;;;;0.40;0.30;;;15.20;99.90;;;;;;5050790;28;20929;-73
2022/05/21 05:49:53;;;;;;;0.40;0.20;;;15.20;99.90;;;;;;5050263;28;20397;-73
2022/05/21 05:52:19;;;;;;;0.40;0.40;;;15.20;99.90;;;;;;5049101;28;20404;-73
2022/05/21 05:54:45;;;;;;;0.40;0.20;;;15.30;99.90;;;;;;5050369;28;20397;-73
2022/05/21 05:57:11;;;;;;;0.90;0.90;;;15.50;99.90;;;;;;5048777;28;20393;-73
2022/05/21 05:59:50;;;;;;;0.40;0.30;;;15.50;99.90;;;;;;5049429;28;20388;-73
2022/05/21 06:05:07;;;;;;;0.40;0.20;;;15.50;99.90;;;;;;5033748;28;20467;-72
2022/05/21 06:07:33;;;;;;;0.40;0.30;;;15.50;99.90;;;;;;5050401;28;20413;-73
2022/05/21 06:10:01;;;;;;;0.40;0.20;;;15.60;99.90;;;;;;5049356;28;20484;-72
2022/05/21 06:12:28;;;;;;;0.40;0.20;;;15.70;99.90;;;;;;5032653;28;20389;-73
2022/05/21 06:14:53;;;;;;;0.40;0.20;;;15.70;99.90;;;;;;5050256;28;20405;-73
2022/05/21 06:17:19;;;;;;;0.40;0.40;;;15.60;99.90;;;;;;5049610;28;20374;-72
2022/05/21 06:19:45;;;;;;;0.40;0.30;;;15.70;99.90;;;;;;5049737;28;20727;-72
2022/05/21 06:22:11;;;;;;;0.40;0.20;;;15.80;99.90;;;;;;5049013;28;20377;-72
2022/05/21 06:24:37;;;;;;;0.40;0.20;;;15.80;99.90;;;;;;5039955;28;20474;-73
2022/05/21 06:27:04;;;;;;;0.40;0.30;;;15.80;99.90;;;;;;5029496;28;20403;-72
2022/05/21 06:29:30;;;;;;;0.40;0.20;;;16.00;99.90;;;;;;5029848;28;20902;-72
2022/05/21 06:31:57;;;;;;;0.40;0.20;;;16.00;99.90;;;;;;5030369;28;20391;-72
2022/05/21 06:34:23;;;;;;;0.40;0.20;;;16.20;99.90;;;;;;5029321;28;20383;-72
2022/05/21 06:36:49;;;;;;;0.40;0.20;;;16.30;99.90;;;;;;5038645;28;20392;-72
2022/05/21 06:39:14;;;;;;;0.40;0.20;;;16.30;99.90;;;;;;5049978;28;20383;-72
2022/05/21 06:41:40;;;;;;;0.40;0.20;;;16.30;99.90;;;;;;5032056;28;20423;-72
2022/05/21 06:44:06;;;;;;;0.40;0.30;;;16.30;99.90;;;;;;5040512;28;20391;-71
2022/05/21 06:46:31;;;;;;;0.40;0.20;;;16.10;99.90;;;;;;5043899;28;20417;-72
2022/05/21 06:48:57;;;;;;;0.40;0.30;;;16.10;99.90;;;;;;5052075;28;20380;-72
2022/05/21 06:51:23;;;;;;;0.40;0.20;;;16.20;99.90;;;;;;5038673;28;20917;-70
2022/05/21 06:53:49;;;;;;;0.40;0.30;;;16.20;99.90;;;;;;5042239;28;20403;-71
2022/05/21 06:56:16;;;;;;;0.40;0.30;;;16.30;99.90;;;;;;5042908;28;20405;-69
2022/05/21 06:58:43;;;;;;;0.70;0.57;;;16.40;99.90;;;;;;5033370;28;20385;-71
2022/05/21 07:01:09;;;;;;;0.40;0.40;;;16.40;99.90;;;;;;5032046;28;20383;-71
2022/05/21 07:03:35;;;;;;;0.40;0.20;;;16.30;99.90;;;;;;5040765;28;20974;-71
2022/05/21 07:08:46;;;;;;;0.40;0.20;;;16.50;99.90;;;;;;5052186;28;20426;-71
2022/05/21 07:11:13;;;;;;;0.40;0.40;;;16.60;99.90;;;;;;5048896;28;20447;-70
2022/05/21 07:13:39;;;;;;;0.40;0.20;;;16.60;99.90;;;;;;5052227;28;20403;-70
2022/05/21 07:16:05;;;;;;;0.40;0.20;;;16.60;99.90;;;;;;5047646;28;20403;-70
2022/05/21 07:18:30;;;;;;;0.40;0.20;;;16.70;99.90;;;;;;5041709;28;20486;-70
2022/05/21 07:20:56;;;;;;;0.40;0.20;;;16.50;99.90;;;;;;5048823;28;20388;-71
2022/05/21 07:23:25;;;;;;;0.90;0.90;;;16.50;99.90;;;;;;5047032;28;20383;-71
2022/05/21 07:25:52;;;;;;;0.40;0.25;;;16.80;99.90;;;;;;5048426;28;20435;-71
2022/05/21 07:28:18;;;;;;;0.40;0.20;;;16.70;99.90;;;;;;5050641;28;20391;-71
2022/05/21 07:30:45;;;;;;;0.40;0.20;;;16.80;99.90;;;;;;5047055;28;20856;-70
2022/05/21 07:33:14;;;;;;;0.40;0.20;;;16.90;99.90;;;;;;5053254;28;20479;-69
2022/05/21 07:35:40;;;;;;;0.40;0.30;;;17.10;99.90;;;;;;5047882;28;20419;-69
2022/05/21 07:38:07;;;;;;;0.40;0.20;;;16.80;99.90;;;;;;5045492;28;20421;-69
2022/05/21 07:40:34;;;;;;;0.40;0.30;;;16.80;99.90;;;;;;5052807;28;20389;-70
2022/05/21 07:43:07;;;;;;;0.40;0.20;;;16.80;99.90;;;;;;5053044;28;20477;-70
2022/05/21 07:45:38;;;;;;;0.40;0.20;;;17.00;99.90;;;;;;5052423;28;20386;-70
2022/05/21 07:48:05;;;;;;;0.40;0.20;;;17.20;99.90;;;;;;5052659;28;20435;-69
2022/05/21 07:50:30;;;;;;;0.40;0.20;;;17.40;95.90;;;;;;5053121;28;20395;-70
2022/05/21 07:52:57;;;;;;;0.40;0.20;;;17.50;94.90;;;;;;5052874;28;20808;-70
2022/05/21 07:55:22;;;;;;;0.40;0.20;;;17.50;96.00;;;;;;5052047;28;20415;-70
2022/05/21 07:57:48;;;;;;;0.40;0.30;;;17.40;98.40;;;;;;5053303;28;20409;-70
2022/05/21 08:00:17;;;;;;;0.40;0.20;;;17.40;93.40;;;;;;5052108;28;20396;-69
2022/05/21 08:02:45;;;;;;;0.40;0.20;;;17.30;89.80;;;;;;5052742;28;20854;-70
2022/05/21 08:05:11;;;;;;;0.40;0.20;;;17.40;88.80;;;;;;5050845;28;20467;-69
2022/05/21 08:07:37;;;;;;;0.40;0.20;;;17.60;85.50;;;;;;5052382;28;20409;-70
2022/05/21 08:10:05;;;;;;;0.40;0.20;;;17.60;86.90;;;;;;5052308;28;20754;-70
2022/05/21 08:12:30;;;;;;;0.40;0.30;;;17.60;93.60;;;;;;5052693;28;20458;-70
2022/05/21 08:14:56;;;;;;;0.40;0.30;;;17.70;92.50;;;;;;5052661;28;20382;-70
2022/05/21 08:17:22;;;;;;;0.40;0.30;;;17.80;92.00;;;;;;5051474;28;20388;-70
2022/05/21 08:19:47;;;;;;;0.40;0.20;;;17.80;93.40;;;;;;5052595;28;20413;-69
2022/05/21 08:27:41;;;;;;;0.40;0.30;;;18.10;92.00;;;;;;5015220;28;20817;-69
2022/05/21 08:30:08;;;;;;;0.40;0.20;;;18.00;92.20;;;;;;5029911;28;20383;-69
2022/05/21 08:32:35;;;;;;;0.40;0.30;;;18.20;92.40;;;;;;5030124;28;20437;-69
2022/05/21 08:35:01;;;;;;;0.40;0.20;;;18.20;91.20;;;;;;5029949;28;20882;-69
2022/05/21 08:37:27;;;;;;;0.40;0.20;;;18.20;90.60;;;;;;5029177;28;20383;-69
2022/05/21 08:39:53;;;;;;;0.40;0.20;;;18.00;92.20;;;;;;5029999;28;20398;-69
2022/05/21 08:42:33;;;;;;;0.60;0.60;;;18.10;95.60;;;;;;5029423;28;20394;-69
2022/05/21 08:45:23;;;;;;;0.40;0.20;;;18.30;91.30;;;;;;5031204;28;20387;-69
2022/05/21 08:47:59;;;;;;;0.40;0.20;;;18.50;88.50;;;;;;5031912;28;20473;-69
2022/05/21 08:50:27;;;;;;;0.40;0.20;;;18.50;88.10;;;;;;5031092;28;21017;-69
2022/05/21 08:53:04;;;;;;;0.40;0.20;;;18.70;88.60;;;;;;5031653;28;20395;-69
2022/05/21 08:55:34;;;;;;;0.40;0.20;;;18.60;86.20;;;;;;5031055;28;20383;-69
2022/05/21 08:58:07;;;;;;;0.40;0.30;;;18.60;88.00;;;;;;5030766;28;21321;-70
2022/05/21 09:00:42;;;;;;;0.40;0.30;;;18.40;87.30;;;;;;5031173;28;20390;-70
2022/05/21 09:03:10;;;;;;;0.40;0.20;;;18.40;89.70;;;;;;5031244;28;20390;-70
2022/05/21 09:05:37;;;;;;;0.40;0.20;;;18.70;91.30;;;;;;5031514;28;20374;-70
2022/05/21 09:08:24;;;;;;;0.40;0.30;;;18.70;90.10;;;;;;5031511;28;20390;-71
2022/05/21 09:11:04;;;;;;;0.40;0.20;;;18.90;90.50;;;;;;5030985;28;20430;-70
2022/05/21 09:13:52;;;;;;;10.27;4.50;;;18.70;84.30;;;;;;5029308;28;20539;-70
2022/05/21 09:19:10;;;;;;;0.40;0.30;;;18.80;90.30;;;;;;5029265;28;20414;-70
2022/05/21 09:21:43;;;;;;;0.40;0.20;;;18.80;87.70;;;;;;5029455;28;20436;-70
2022/05/21 09:24:09;;;;;;;0.40;0.20;;;18.90;90.40;;;;;;5035396;28;20527;-70
2022/05/21 09:26:48;;;;;;;0.40;0.20;;;19.10;86.80;;;;;;5048756;28;20503;-71
2022/05/21 09:29:19;;;;;;;0.40;0.20;;;19.20;92.20;;;;;;5050104;28;20394;-70
2022/05/21 09:31:46;;;;;;;0.40;0.20;;;19.10;83.40;;;;;;5050708;28;20468;-70
2022/05/21 09:34:24;;;;;;;0.40;0.22;;;19.00;89.00;;;;;;5049502;28;20434;-70
2022/05/21 09:36:50;;;;;;;0.40;0.30;;;18.90;89.90;;;;;;5050066;28;20740;-70
2022/05/21 09:39:38;;;;;;;0.40;0.30;;;19.10;92.30;;;;;;5049328;28;20369;-70
2022/05/21 09:45:24;;;;;;;0.50;0.50;;;19.60;87.40;;;;;;4985760;28;20422;-70
2022/05/21 09:48:11;;;;;;;0.40;0.20;;;19.60;87.50;;;;;;5037825;28;20429;-68
2022/05/21 09:50:48;;;;;;;0.40;0.20;;;19.60;85.40;;;;;;5047789;28;20514;-69
2022/05/21 09:53:38;;;;;;;0.40;0.20;;;19.80;83.60;;;;;;5048292;28;20932;-70
2022/05/21 09:56:06;;;;;;;0.40;0.30;;;19.80;82.90;;;;;;5049672;28;20388;-71
2022/05/21 09:58:37;;;;;;;0.40;0.30;;;19.70;83.10;;;;;;5049635;28;20467;-71
2022/05/21 10:01:05;;;;;;;0.40;0.30;;;19.80;85.10;;;;;;5050928;28;20413;-71
2022/05/21 10:03:45;;;;;;;0.40;0.30;;;19.80;83.90;;;;;;5049418;28;20461;-70
2022/05/21 10:06:42;;;;;;;0.40;0.20;;;19.90;84.30;;;;;;5049743;28;20409;-71
2022/05/21 10:12:28;;;;;;;0.40;0.20;;;20.00;82.30;;;;;;5034012;28;20759;-70
2022/05/21 10:15:03;;;;;;;0.40;0.20;;;20.20;80.50;;;;;;5050011;28;20472;-71
2022/05/21 10:17:34;;;;;;;0.40;0.30;;;20.20;79.90;;;;;;5047779;28;21014;-70
2022/05/21 10:20:17;;;;;;;0.40;0.20;;;20.40;79.90;;;;;;5047107;28;20396;-70
2022/05/21 10:22:56;;;;;;;0.40;0.20;;;20.60;78.30;;;;;;5048161;28;20746;-71
2022/05/21 10:25:24;;;;;;;0.40;0.20;;;20.50;72.60;;;;;;5030288;28;20486;-70
2022/05/21 10:28:13;;;;;;;0.40;0.30;;;20.50;76.60;;;;;;5010138;28;20913;-70
2022/05/21 10:30:47;;;;;;;0.40;0.20;;;20.60;74.20;;;;;;5031658;28;20389;-70
2022/05/21 10:33:23;;;;;;;0.40;0.30;;;20.70;71.50;;;;;;5031440;28;20457;-70
2022/05/21 10:36:16;;;;;;;0.40;0.30;;;20.60;66.80;;;;;;5031679;28;20387;-70
2022/05/21 10:38:45;;;;;;;0.40;0.20;;;20.90;71.20;;;;;;5031773;28;20407;-70
2022/05/21 10:41:35;;;;;;;0.40;0.30;;;21.00;75.40;;;;;;5031967;28;20461;-70
2022/05/21 10:44:09;;;;;;;0.40;0.30;;;21.30;68.50;;;;;;5031787;28;20480;-70
2022/05/21 10:46:37;;;;;;;0.40;0.30;;;20.90;70.80;;;;;;5031103;28;20413;-70
2022/05/21 10:49:12;;;;;;;0.40;0.30;;;21.00;72.80;;;;;;5031618;28;20391;-69
2022/05/21 10:51:57;;;;;;;0.40;0.30;;;21.60;67.80;;;;;;5030801;28;20391;-71
2022/05/21 10:54:25;;;;;;;0.40;0.30;;;21.40;67.70;;;;;;5030704;28;20383;-71
2022/05/21 10:57:13;;;;;;;0.40;0.30;;;21.50;62.10;;;;;;5031225;28;20379;-70
2022/05/21 11:00:13;;;;;;;0.40;0.20;;;21.60;62.10;;;;;;5031079;28;20871;-69
2022/05/21 11:03:16;;;;;;;0.60;0.60;;;21.80;62.10;;;;;;5031302;28;20476;-69
2022/05/21 11:06:07;;;;;;;0.40;0.20;;;21.60;64.70;;;;;;5031157;28;20867;-69
2022/05/21 11:08:48;;;;;;;0.40;0.20;;;21.90;65.50;;;;;;5030700;28;20737;-70
2022/05/21 11:11:43;;;;;;;0.40;0.30;;;21.80;60.00;;;;;;5030853;28;20423;-70
2022/05/21 11:14:38;;;;;;;0.40;0.30;;;21.80;57.60;;;;;;5031089;28;20885;-69
2022/05/21 11:17:28;;;;;;;0.50;0.50;;;22.30;60.10;;;;;;5030989;28;20705;-69
2022/05/21 11:20:01;;;;;;;0.40;0.30;;;22.60;60.20;;;;;;5031398;28;20926;-69
2022/05/21 11:22:39;;;;;;;0.80;0.50;;;22.90;62.40;;;;;;5030108;28;20383;-69
2022/05/21 11:25:14;;;;;;;0.40;0.20;;;23.30;60.90;;;;;;5046773;28;20945;-70
2022/05/21 11:27:58;;;;;;;0.40;0.30;;;23.30;62.60;;;;;;5052174;28;20482;-69
2022/05/21 11:30:24;;;;;;;0.40;0.30;;;23.30;58.70;;;;;;5051201;28;20377;-69
2022/05/21 11:38:41;;;;;;;0.40;0.30;;;22.30;61.80;;;;;;5050703;28;20888;-69
2022/05/21 11:41:24;;;;;;;0.40;0.20;;;22.20;60.00;;;;;;5051814;28;20397;-70
2022/05/21 11:46:45;;;;;;;0.40;0.30;;;21.90;59.30;;;;;;5051561;28;20423;-70
2022/05/21 11:49:39;;;;;;;0.40;0.20;;;22.40;63.20;;;;;;5051884;28;20409;-69
2022/05/21 11:52:27;;;;;;;0.40;0.30;;;22.90;57.60;;;;;;5050786;28;20386;-70
2022/05/21 11:54:58;;;;;;;0.40;0.20;;;22.30;57.60;;;;;;5051074;28;20378;-70
2022/05/21 11:57:48;;;;;;;0.40;0.30;;;22.60;64.10;;;;;;5050266;28;20398;-69
2022/05/21 12:00:25;;;;;;;0.40;0.20;;;22.10;62.90;;;;;;5051414;28;20386;-70
2022/05/21 12:02:54;;;;;;;0.40;0.30;;;22.40;61.40;;;;;;5051375;28;20385;-70
2022/05/21 12:05:33;;;;;;;0.40;0.30;;;22.70;60.70;;;;;;5050698;28;20428;-70
2022/05/21 12:08:27;;;;;;;0.40;0.20;;;22.70;60.30;;;;;;5051517;28;20966;-70
2022/05/21 12:11:26;;;;;;;0.40;0.20;;;23.20;63.70;;;;;;5050797;28;20421;-71
2022/05/21 12:14:05;;;;;;;0.40;0.30;;;23.60;64.10;;;;;;5050973;28;20381;-70
2022/05/21 12:16:31;;;;;;;0.40;0.30;;;23.70;63.80;;;;;;5050689;28;20451;-70
2022/05/21 12:18:59;;;;;;;0.40;0.30;;;24.30;62.50;;;;;;5051441;28;20385;-71
2022/05/21 12:21:28;;;;;;;0.40;0.20;;;24.80;63.00;;;;;;5050702;28;20390;-70
2022/05/21 12:23:55;;;;;;;0.40;0.30;;;24.70;58.10;;;;;;5047715;28;20449;-70
2022/05/21 12:26:38;;;;;;;0.40;0.20;;;24.80;59.40;;;;;;5031109;28;20540;-70
2022/05/21 12:29:26;;;;;;;0.40;0.20;;;24.40;56.60;;;;;;5032263;28;20402;-70
2022/05/21 12:31:59;;;;;;;0.40;0.20;;;24.10;62.10;;;;;;5032328;28;20842;-70
2022/05/21 12:34:43;;;;;;;0.40;0.30;;;23.40;58.30;;;;;;5031207;28;20398;-69
2022/05/21 12:37:26;;;;;;;0.40;0.30;;;24.60;58.30;;;;;;5032086;28;20506;-70
2022/05/21 12:40:15;;;;;;;0.40;0.20;;;24.70;54.60;;;;;;5031959;28;20974;-70
2022/05/21 12:42:51;;;;;;;0.40;0.20;;;25.10;58.10;;;;;;5031086;28;20965;-70
2022/05/21 12:45:48;;;;;;;0.40;0.20;;;25.00;56.00;;;;;;5031697;28;20784;-71
2022/05/21 12:48:20;;;;;;;0.40;0.30;;;23.60;57.40;;;;;;5032041;28;20383;-70
2022/05/21 12:51:06;;;;;;;0.40;0.20;;;23.50;57.70;;;;;;5030427;28;20449;-70
2022/05/21 12:53:48;;;;;;;0.40;0.20;;;23.70;60.90;;;;;;5030691;28;20803;-69
2022/05/21 12:56:25;;;;;;;0.40;0.20;;;23.30;58.40;;;;;;5031796;28;20386;-70
2022/05/21 12:59:04;;;;;;;0.40;0.20;;;23.60;62.30;;;;;;5031446;28;20865;-69
2022/05/21 13:01:31;;;;;;;0.40;0.30;;;23.50;54.60;;;;;;5030959;28;20390;-69
2022/05/21 13:04:01;;;;;;;0.40;0.20;;;23.30;56.50;;;;;;5031472;28;20477;-70
2022/05/21 13:06:32;;;;;;;0.40;0.20;;;23.50;59.70;;;;;;5030375;28;20997;-69
2022/05/21 13:09:00;;;;;;;0.40;0.20;;;23.60;60.10;;;;;;5031477;28;20391;-69
2022/05/21 13:11:39;;;;;;;0.40;0.20;;;23.40;59.00;;;;;;5030311;28;20806;-69
2022/05/21 13:14:15;;;;;;;0.40;0.30;;;23.20;61.20;;;;;;5031001;28;20395;-69
2022/05/21 13:16:51;;;;;;;0.40;0.30;;;22.90;61.10;;;;;;5030345;28;20391;-70
2022/05/21 13:19:40;;;;;;;0.40;0.20;;;22.90;60.80;;;;;;5031339;28;20382;-69
2022/05/21 13:22:21;;;;;;;0.40;0.30;;;23.60;60.10;;;;;;5031356;28;20423;-69
2022/05/21 13:24:59;;;;;;;0.40;0.30;;;23.50;58.90;;;;;;5042146;28;20400;-69
2022/05/21 13:27:25;;;;;;;0.40;0.30;;;23.50;59.60;;;;;;5048945;28;20431;-69
2022/05/21 13:29:53;;;;;;;0.40;0.30;;;23.20;58.60;;;;;;5048989;28;20381;-69
2022/05/21 13:32:31;;;;;;;0.40;0.20;;;23.10;58.40;;;;;;5049737;28;20377;-69
2022/05/21 13:35:01;;;;;;;0.40;0.20;;;23.50;63.30;;;;;;5049618;28;20390;-70
2022/05/21 13:37:33;;;;;;;0.40;0.20;;;23.80;59.60;;;;;;5049987;28;20939;-70
2022/05/21 13:40:42;;;;;;;0.40;0.20;;;23.80;56.60;;;;;;5050790;28;20385;-70